Create Custom Reports and Graphics: Custom Report

Belmont 8000'

Squaw Valley

5/3/26 6:15 PM (-07:00)
Updated Every 15 Minutes
Temp 37.3 °F   8.4
RH 97 %   12
Dew Pt 36.5 °F   4.9
Wet Bulb 36.9 °F   6.5
Wind Dir WSW | 252 °
Wind Spd 3.5 mph   6.1
Wind Gust 8.3 mph   7.0
WindChill 34.9 °F   6.1
Daily Min Temp 33.1 °F   9.8
Daily Max Temp 53.4 °F   0.3
Latest Rain 0.00 In
Daily Rain 0.24 In
New Snow (HN) 0.1 in
Snow Depth (HS) 46.8 in

Last 24 Hours

OV-Belmont 8000'

Hourly Data | America/Los_Angeles
as of 5/3/26 6:27 PM PDT
Date & Time Temp (°F) RH (%) Dew Pt (°F) Wet Bulb (°F) Wind Dir (°) Wind Spd (mph) Wind Gust (mph) WindChill (°F) Latest Rain (In) New Snow (HN) (in) Snow Depth (HS) (in) Daily Min Temp (°F) Daily Max Temp (°F) Daily Rain (In)
5/3/26 - 1800 36.7 97 35.9 36.3 SW | 222 6.8 14.0 31.3 0.00 0.1 46.8 33.1 53.4 0.24
5/3/26 - 1700 34.6 93 32.9 33.8 S | 174 12.9 31.1 27.0 0.04 0.1 47.0 33.1 53.4 0.24
5/3/26 - 1600 33.5 95 32.3 33.0 SSE | 160 14.4 27.8 25.9 0.07 0.0 46.7 33.1 53.4 0.20
5/3/26 - 1500 36.5 84 32.2 34.5 S | 173 22.1 33.6 24.9 0.12 0.0 46.8 34.7 53.4 0.13
5/3/26 - 1400 39.7 84 35.2 37.5 SSW | 201 15.7 25.3 38.1 0.01 0.0 46.8 39.7 53.4 0.01
5/3/26 - 1300 50.8 51 33.1 41.8 E | 90 3.1 8.8 50.8 0.00 0.0 46.8 41.3 53.4 0.00
5/3/26 - 1200 51.9 49 33.3 42.4 SE | 127 3.6 11.3 50.0 0.00 0.0 47.0 41.3 52.6 0.00
5/3/26 - 1100 51.1 52 33.9 42.3 ESE | 123 4.8 14.1 47.3 0.00 0.0 47.1 41.3 51.4 0.00
5/3/26 - 1000 47.3 55 32.1 39.8 SE | 129 4.8 12.4 44.6 0.00 0.0 47.4 41.3 47.4 0.00
5/3/26 - 0900 46.4 59 33.0 39.7 SE | 125 4.9 12.6 43.7 0.00 0.0 47.5 41.3 46.7 0.00
5/3/26 - 0800 45.0 59 31.5 38.4 ESE | 112 4.3 13.5 42.0 0.00 0.0 47.6 41.3 45.1 0.00
5/3/26 - 0700 43.1 67 32.8 38.0 ESE | 104 3.1 12.2 41.3 0.00 0.0 47.6 41.3 43.3 0.00
5/3/26 - 0600 42.3 67 32.3 37.4 ESE | 119 3.4 14.1 40.9 0.00 0.0 47.5 41.3 43.2 0.00
5/3/26 - 0500 42.6 69 33.2 38.0 E | 96 3.5 7.7 40.9 0.00 0.1 47.7 41.3 43.2 0.00
5/3/26 - 0400 43.1 71 34.6 38.8 E | 94 2.9 8.0 41.5 0.00 0.1 47.7 41.3 43.2 0.00
5/3/26 - 0300 42.4 76 35.6 39.0 ESE | 118 3.3 9.2 41.1 0.00 0.0 47.6 41.3 43.2 0.00
5/3/26 - 0200 41.4 80 35.7 38.6 ESE | 120 2.1 7.6 41.4 0.00 0.0 47.6 41.3 42.6 0.00
5/3/26 - 0100 42.1 79 36.2 39.1 SE | 132 1.5 5.3 41.5 0.00 0.0 47.7 41.3 42.4 0.00
5/3/26 - 0000 41.6 82 36.6 39.1 SE | 129 1.1 4.6 41.0 0.00 0.0 47.6 40.7 53.7 0.12
5/2/26 - 2300 41.4 84 37.1 39.2 S | 187 0.8 3.7 41.3 0.00 0.0 47.6 40.8 53.7 0.12
5/2/26 - 2200 41.6 84 37.0 39.2 SE | 134 1.7 7.3 41.2 0.00 0.0 47.6 41.1 53.7 0.12
5/2/26 - 2100 41.1 88 38.0 39.5 SSW | 196 1.4 3.6 42.2 0.00 0.0 47.6 41.1 53.7 0.12
5/2/26 - 2000 43.1 85 39.0 41.0 SSE | 154 2.9 11.1 43.5 0.00 0.1 47.6 42.9 53.7 0.12
5/2/26 - 1900 45.7 83 40.7 43.0 S | 185 9.8 18.2 40.4 0.04 0.0 47.4 42.9 53.7 0.12
5/2/26 - 1800 45.4 84 41.0 43.0 SSW | 197 7.4 18.6 42.2 0.02 0.1 47.6 42.9 53.7 0.08
Max 51.9 97 41.0 43.0 - 22.1 33.6 50.8 0.12 0.1 47.7 42.9 53.7 0.24
Avg 42.8 75 35.0 38.9 - 5.7 13.4 40.2 0.01 0.0 47.4 - - -
Min 33.5 49 31.5 33.0 - 0.8 3.6 24.9 0.00 0.0 46.7 33.1 42.4 0.00
Total - - - - - - - - 0.30 - - - - -

Last 30 Days

OV-Belmont 8000'

Daily Data | America/Los_Angeles
as of 5/3/26 6:27 PM PDT
Date Daily Max Temp (°F) Time of Max Temp Daily Min Temp (°F) Time of Min Temp Daily Rain (In) Season Precip (In) New Snow (HN) (in) Snow Depth (HS) (in) Wind Spd (mph) Daily Max Wind (mph) Time of Max Wind Max Wind Dir (°) Daily Max RH (%) Daily Min RH (%) Wet Bulb (°F) WetB Hrs <28F (hrs) MinBV Day (V)
5/2/26 53.7 1154 40.7 2315 0.12 100.10 0.0 47.6 7.9 23.5 1156 S | 191 93 44 40.4 0.0 12.8
5/1/26 60.0 1700 39.0 0423 0.00 100.00 0.0 49.0 4.2 18.2 1110 E | 94 79 24 37.6 0.0 12.9
4/30/26 59.5 1609 37.0 0605 0.00 100.00 0.1 50.7 3.4 18.4 1146 E | 88 90 27 37.6 0.0 12.8
4/29/26 56.9 1449 31.3 0420 0.00 100.00 0.1 52.1 3.5 16.7 1604 WSW | 241 96 28 36.0 0.0 12.8
4/28/26 47.8 1240 26.7 0349 0.01 100.00 0.0 53.2 3.8 16.1 1526 WNW | 293 100 38 31.8 3.7 12.8
4/27/26 42.7 1500 21.7 0633 0.02 100.00 0.2 54.0 5.3 17.3 0216 SE | 130 100 52 27.9 11.1 12.9
4/26/26 33.1 1235 25.0 0558 0.19 100.00 1.5 56.1 13.0 39.0 1527 ESE | 115 100 80 26.9 15.7 12.9
4/25/26 43.6 1401 27.0 2359 0.00 99.80 0.0 54.2 10.4 28.6 1131 S | 191 100 28 30.4 4.1 12.8
4/24/26 49.3 1356 32.3 1925 0.20 99.80 0.5 55.1 4.4 22.4 1543 SW | 225 100 50 34.0 0.0 12.8
4/23/26 50.6 1403 22.7 0358 0.00 99.60 0.0 57.2 3.1 11.9 1811 SW | 215 100 43 31.5 7.8 12.9
4/22/26 31.7 1514 19.9 0251 0.25 99.60 9.0 60.6 9.8 32.2 0502 ESE | 107 98 89 24.0 20.9 12.9
4/21/26 34.8 0001 22.4 2213 1.46 99.30 6.6 61.7 10.1 32.7 2004 S | 176 99 77 27.3 14.1 12.9
4/20/26 48.4 1547 34.1 2256 0.00 97.90 0.2 51.8 14.0 36.3 0123 SSE | 167 83 32 33.7 0.0 12.8
4/19/26 52.6 1229 35.5 0406 0.00 97.90 0.1 53.1 13.9 34.6 2159 NE | 56 79 33 34.7 0.0 12.8
4/18/26 59.4 1321 32.0 0617 0.00 97.90 0.1 55.2 3.2 16.3 2355 SSW | 204 86 25 34.5 5.0 12.9
4/17/26 53.7 1637 17.8 0517 0.00 97.90 0.0 57.8 4.0 23.4 0122 ENE | 64 72 15 24.2 15.8 12.9
4/16/26 42.7 1638 19.8 2354 0.00 97.90 0.1 59.7 10.0 37.5 0235 S | 170 98 20 25.2 20.0 12.9
4/15/26 39.6 1353 28.7 2343 0.00 97.90 0.0 62.4 17.4 45.0 2132 SE | 132 88 37 29.0 9.8 12.9
4/14/26 40.2 1546 24.3 0411 0.00 97.90 0.0 65.7 7.0 24.5 1650 SW | 216 98 35 28.4 13.3 12.9
4/13/26 37.0 1511 22.8 0001 0.18 97.90 0.0 71.5 3.1 14.3 2038 NW | 322 100 91 27.9 14.2 12.9
4/12/26 26.6 1328 20.0 0322 2.01 97.70 9.4 77.8 6.2 32.2 0031 SSE | 154 100 99 22.6 24.0 13.0
4/11/26 31.8 1209 23.6 2359 1.84 95.70 8.4 61.8 12.2 46.9 1643 E | 101 100 100 28.9 3.0 12.9
4/10/26 40.1 1145 28.4 2319 1.21 93.80 4.5 49.8 11.4 38.7 1346 SE | 136 100 80 32.7 0.0 12.9
4/9/26 47.2 1151 36.3 2359 0.11 92.60 0.3 44.3 7.0 33.2 2245 S | 172 97 57 38.2 0.0 12.8
4/8/26 54.6 1231 38.3 2324 0.00 92.50 0.1 45.5 7.0 21.8 2014 SSW | 212 93 26 36.6 0.0 12.8
4/7/26 56.6 1330 39.0 0001 0.00 92.50 0.0 46.6 9.1 21.8 2032 SW | 225 63 15 33.7 1.3 12.9
4/6/26 56.4 1449 38.0 2348 0.00 92.50 0.0 47.9 6.7 19.6 1508 WSW | 250 69 20 36.1 0.1 12.9
4/5/26 56.8 1205 37.3 0458 0.00 92.50 0.0 49.9 3.8 15.4 1549 S | 182 50 22 34.3 0.0 12.9
4/4/26 54.2 1536 29.8 0415 0.00 92.50 0.0 52.2 3.7 15.6 0944 ESE | 111 63 23 30.7 8.2 12.9
4/3/26 44.2 1709 20.7 0618 0.00 92.50 0.0 54.7 6.7 20.9 0353 ESE | 106 80 27 24.8 17.8 12.9
Max 60.0 - 40.7 - 2.01 100.10 9.4 77.8 17.4 46.9 - - 100 100 40.4 24.0 13.0
Avg - - - - - - 1.4 55.3 7.5 - - - - - 31.4 - -
Min 26.6 - 17.8 - 0.00 92.50 0.0 44.3 3.1 11.9 - - 50 15 22.6 0.0 12.8
Calm: 0.0%
Calm: 0.8%